createdAt,value
2022-08-18T00:01:49.215Z,20.43
2022-08-18T00:04:36.276Z,20.34
2022-08-18T00:07:13.043Z,20.28
2022-08-18T00:09:41.240Z,20.29
2022-08-18T00:12:15.069Z,20.34
2022-08-18T00:14:42.540Z,20.41
2022-08-18T00:17:09.627Z,20.44
2022-08-18T00:19:45.712Z,20.56
2022-08-18T00:22:18.527Z,20.55
2022-08-18T00:24:49.269Z,20.61
2022-08-18T00:27:22.860Z,20.61
2022-08-18T00:29:52.676Z,20.52
2022-08-18T00:32:23.937Z,20.26
2022-08-18T00:34:51.715Z,20.11
2022-08-18T00:37:18.815Z,20.07
2022-08-18T00:39:46.152Z,20.25
2022-08-18T00:42:29.801Z,20.47
2022-08-18T00:45:02.156Z,20.49
2022-08-18T00:47:33.135Z,20.37
2022-08-18T00:50:15.400Z,20.14
2022-08-18T00:52:47.787Z,20.04
2022-08-18T00:55:18.339Z,20.19
2022-08-18T00:57:48.473Z,20.30
2022-08-18T01:00:15.829Z,20.40
2022-08-18T01:02:51.656Z,20.60
2022-08-18T01:05:27.463Z,20.70
2022-08-18T01:07:54.718Z,20.81
2022-08-18T01:10:23.481Z,20.94
2022-08-18T01:12:57.019Z,21.01
2022-08-18T01:15:28.914Z,20.98
2022-08-18T01:18:21.830Z,21.03
2022-08-18T01:21:10.036Z,20.83
2022-08-18T01:23:37.599Z,20.67
2022-08-18T01:26:04.714Z,20.72
2022-08-18T01:28:34.799Z,20.80
2022-08-18T01:31:03.747Z,20.91
2022-08-18T01:33:34.062Z,20.91
2022-08-18T01:36:16.826Z,20.94
2022-08-18T01:38:46.600Z,20.93
2022-08-18T01:41:26.293Z,21.04
2022-08-18T01:43:56.390Z,21.11
2022-08-18T01:46:23.710Z,21.17
2022-08-18T01:48:51.725Z,21.18
2022-08-18T01:51:20.600Z,21.09
2022-08-18T01:54:06.111Z,20.83
2022-08-18T01:56:33.234Z,20.77
2022-08-18T01:59:00.158Z,20.77
2022-08-18T02:01:36.526Z,20.66
2022-08-18T02:04:33.283Z,20.62
2022-08-18T02:06:56.327Z,20.54
2022-08-18T02:09:24.561Z,20.40
2022-08-18T02:11:55.742Z,20.33
2022-08-18T02:14:25.283Z,20.31
2022-08-18T02:17:01.910Z,20.22
2022-08-18T02:19:38.716Z,20.24
2022-08-18T02:22:07.877Z,20.18
2022-08-18T02:24:34.863Z,20.16
2022-08-18T02:27:01.846Z,20.19
2022-08-18T02:29:29.209Z,20.17
2022-08-18T02:31:56.316Z,20.11
2022-08-18T02:34:23.831Z,20.07
2022-08-18T02:36:51.387Z,20.08
2022-08-18T02:39:18.312Z,20.15
2022-08-18T02:41:45.327Z,20.08
2022-08-18T02:44:12.413Z,20.06
2022-08-18T02:46:39.443Z,20.13
2022-08-18T02:49:08.229Z,20.12
2022-08-18T02:51:36.076Z,20.08
2022-08-18T02:54:03.788Z,20.04
2022-08-18T02:56:41.679Z,19.98
2022-08-18T02:59:15.556Z,20.07
2022-08-18T03:01:46.547Z,20.18
2022-08-18T03:04:16.459Z,20.21
2022-08-18T03:06:45.349Z,20.34
2022-08-18T03:09:15.492Z,20.44
2022-08-18T03:11:43.466Z,20.39
2022-08-18T03:14:11.842Z,20.44
2022-08-18T03:16:53.216Z,20.52
2022-08-18T03:19:26.139Z,20.60
2022-08-18T03:21:55.122Z,20.64
2022-08-18T03:24:26.699Z,20.67
2022-08-18T03:26:56.913Z,20.69
2022-08-18T03:29:27.972Z,20.71
2022-08-18T03:31:59.228Z,20.78
2022-08-18T03:34:26.241Z,20.80
2022-08-18T03:36:53.857Z,20.86
2022-08-18T03:39:23.711Z,20.85
2022-08-18T03:41:59.902Z,20.88
2022-08-18T03:44:33.763Z,20.90
2022-08-18T03:47:03.964Z,20.92
2022-08-18T03:49:33.911Z,20.92
2022-08-18T03:52:01.568Z,20.88
2022-08-18T03:54:32.288Z,20.84
2022-08-18T03:57:00.507Z,20.78
2022-08-18T03:59:30.765Z,20.82
2022-08-18T04:01:58.255Z,20.88
2022-08-18T04:04:28.019Z,20.86
2022-08-18T04:06:58.878Z,20.92
2022-08-18T04:09:28.653Z,21.05
2022-08-18T04:11:57.032Z,21.09
2022-08-18T04:14:26.231Z,21.08
2022-08-18T04:16:53.502Z,21.01
2022-08-18T04:19:23.113Z,21.03
2022-08-18T04:21:57.064Z,21.04
2022-08-18T04:24:24.301Z,21.04
2022-08-18T04:26:52.146Z,21.07
2022-08-18T04:29:21.472Z,21.03
2022-08-18T04:31:50.538Z,21.06
2022-08-18T04:34:20.575Z,21.11
2022-08-18T04:36:48.771Z,21.18
2022-08-18T04:39:15.846Z,21.21
2022-08-18T04:41:44.192Z,21.30
2022-08-18T04:44:12.686Z,21.21
2022-08-18T04:46:54.067Z,21.15
2022-08-18T04:49:26.195Z,21.19
2022-08-18T04:52:34.331Z,21.17
2022-08-18T04:55:03.049Z,21.24
2022-08-18T04:57:34.143Z,21.34
2022-08-18T05:00:04.239Z,21.47
2022-08-18T05:02:33.194Z,21.49
2022-08-18T05:05:03.553Z,21.63
2022-08-18T05:07:30.862Z,21.76
2022-08-18T05:09:57.816Z,21.92
2022-08-18T05:12:26.425Z,22.15
2022-08-18T05:14:57.140Z,22.15
2022-08-18T05:17:30.211Z,22.25
2022-08-18T05:19:59.041Z,22.07
2022-08-18T05:22:28.445Z,21.96
2022-08-18T05:24:58.338Z,21.84
2022-08-18T05:27:25.381Z,22.01
2022-08-18T05:29:52.391Z,22.17
2022-08-18T05:32:40.944Z,22.20
2022-08-18T05:35:08.389Z,22.56
2022-08-18T05:37:54.454Z,22.84
2022-08-18T05:40:25.230Z,22.88
2022-08-18T05:42:52.341Z,23.07
2022-08-18T05:45:20.503Z,23.20
2022-08-18T05:47:47.602Z,23.37
2022-08-18T05:50:18.784Z,23.55
2022-08-18T05:52:57.716Z,23.64
2022-08-18T05:55:52.677Z,23.75
2022-08-18T05:58:42.231Z,24.09
2022-08-18T06:01:18.849Z,24.06
2022-08-18T06:03:54.070Z,24.18
2022-08-18T06:06:25.499Z,24.34
2022-08-18T06:09:17.991Z,24.45
2022-08-18T06:11:45.775Z,24.64
2022-08-18T06:14:13.631Z,24.55
2022-08-18T06:17:25.381Z,24.87
2022-08-18T06:19:52.284Z,24.94
2022-08-18T06:22:53.395Z,25.17
2022-08-18T06:25:34.371Z,25.18
2022-08-18T06:28:16.276Z,25.49
2022-08-18T06:30:59.966Z,25.66
2022-08-18T06:33:45.982Z,25.77
2022-08-18T06:36:14.513Z,25.73
2022-08-18T06:39:42.023Z,25.95
2022-08-18T06:42:31.356Z,26.11
2022-08-18T06:45:01.145Z,26.21
2022-08-18T06:47:33.877Z,26.35
2022-08-18T06:50:08.529Z,26.55
2022-08-18T06:52:39.058Z,26.90
2022-08-18T06:55:11.560Z,26.69
2022-08-18T06:57:52.505Z,26.59
2022-08-18T07:00:19.676Z,26.85
2022-08-18T07:02:58.385Z,26.99
2022-08-18T07:05:31.168Z,27.11
2022-08-18T07:08:10.852Z,27.22
2022-08-18T07:10:41.777Z,27.01
2022-08-18T07:13:14.304Z,27.06
2022-08-18T07:15:41.630Z,27.13
2022-08-18T07:18:14.588Z,27.04
2022-08-18T07:20:48.711Z,26.99
2022-08-18T07:23:27.742Z,27.00
2022-08-18T07:26:15.156Z,26.87
2022-08-18T07:28:49.846Z,27.01
2022-08-18T07:31:40.698Z,27.03
2022-08-18T07:34:17.602Z,27.17
2022-08-18T07:36:50.538Z,27.25
2022-08-18T07:39:25.788Z,27.30
2022-08-18T07:42:07.636Z,27.25
2022-08-18T07:44:55.106Z,27.60
2022-08-18T07:47:54.425Z,27.74
2022-08-18T07:50:57.391Z,27.77
2022-08-18T07:53:54.622Z,27.75
2022-08-18T07:56:44.329Z,27.89
2022-08-18T07:59:16.076Z,27.71
2022-08-18T08:02:00.310Z,27.76
2022-08-18T08:04:32.840Z,27.87
2022-08-18T08:07:35.887Z,28.07
2022-08-18T08:10:12.106Z,27.96
2022-08-18T08:13:10.019Z,28.28
2022-08-18T08:16:13.057Z,28.48
2022-08-18T08:18:45.118Z,28.45
2022-08-18T08:21:18.000Z,28.59
2022-08-18T08:23:53.686Z,28.42
2022-08-18T08:26:27.565Z,28.23
2022-08-18T08:29:06.500Z,28.50
2022-08-18T08:31:52.062Z,28.57
2022-08-18T08:34:31.468Z,28.67
2022-08-18T08:37:02.761Z,28.50
2022-08-18T08:39:47.191Z,28.51
2022-08-18T08:42:33.799Z,28.39
2022-08-18T08:45:23.805Z,28.51
2022-08-18T08:48:09.510Z,28.61
2022-08-18T08:50:45.545Z,28.35
2022-08-18T08:53:30.436Z,28.79
2022-08-18T08:56:03.363Z,28.89
2022-08-18T08:58:48.414Z,28.93
2022-08-18T09:01:42.901Z,28.91
2022-08-18T09:04:31.413Z,28.86
2022-08-18T09:07:41.437Z,28.92
2022-08-18T09:10:26.764Z,29.07
2022-08-18T09:13:15.280Z,29.27
2022-08-18T09:16:12.249Z,29.37
2022-08-18T09:19:05.463Z,29.67
2022-08-18T09:21:45.988Z,29.42
2022-08-18T09:24:51.099Z,29.35
2022-08-18T09:27:31.046Z,29.46
2022-08-18T09:30:02.072Z,29.37
2022-08-18T09:32:29.182Z,29.12
2022-08-18T09:35:05.329Z,29.21
2022-08-18T09:38:12.929Z,29.11
2022-08-18T09:41:24.341Z,29.34
2022-08-18T10:17:39.241Z,29.37
2022-08-18T10:20:23.961Z,29.64
2022-08-18T10:22:56.588Z,29.62
2022-08-18T10:25:46.601Z,29.49
2022-08-18T10:28:55.575Z,30.05
2022-08-18T10:31:27.316Z,29.87
2022-08-18T10:33:54.479Z,30.18
2022-08-18T10:36:40.111Z,30.01
2022-08-18T10:39:16.000Z,30.37
2022-08-18T10:44:47.180Z,29.90
2022-08-18T10:47:33.315Z,30.01
2022-08-18T10:50:07.170Z,30.23
2022-08-18T10:53:40.148Z,29.91
2022-08-18T10:56:26.908Z,29.78
2022-08-18T10:59:16.472Z,30.50
2022-08-18T11:01:50.256Z,30.60
2022-08-18T11:07:43.041Z,30.23
2022-08-18T11:10:32.162Z,30.90
2022-08-18T11:13:32.430Z,30.77
2022-08-18T11:16:18.378Z,30.71
2022-08-18T11:18:55.166Z,30.56
2022-08-18T11:21:33.037Z,30.70
2022-08-18T11:24:24.982Z,31.20
2022-08-18T11:27:02.090Z,30.30
2022-08-18T11:29:39.082Z,30.55
2022-08-18T11:32:24.291Z,30.51
2022-08-18T11:35:16.392Z,30.68
2022-08-18T11:37:53.243Z,30.96
2022-08-18T11:46:29.747Z,30.39
2022-08-18T11:49:01.777Z,30.50
2022-08-18T11:51:33.626Z,30.69
2022-08-18T11:54:15.664Z,30.36
2022-08-18T11:56:42.658Z,30.10
2022-08-18T11:59:25.703Z,30.07
2022-08-18T12:02:21.504Z,29.98
2022-08-18T12:05:08.741Z,29.68
2022-08-18T12:07:57.908Z,29.75
2022-08-18T12:10:28.694Z,29.85
2022-08-18T12:13:00.489Z,29.56
2022-08-18T12:15:29.684Z,29.60
2022-08-18T12:20:59.394Z,29.93
2022-08-18T12:23:39.163Z,29.92
2022-08-18T12:29:03.334Z,29.37
2022-08-18T12:31:42.755Z,29.19
2022-08-18T12:34:25.137Z,29.29
2022-08-18T12:36:57.255Z,29.25
2022-08-18T12:39:25.117Z,29.26
2022-08-18T12:44:39.227Z,29.40
2022-08-18T12:47:12.420Z,29.43
2022-08-18T12:49:40.022Z,29.85
2022-08-18T12:52:08.095Z,29.90
2022-08-18T12:54:55.686Z,30.10
2022-08-18T12:57:33.357Z,30.20
2022-08-18T13:00:16.960Z,30.12
2022-08-18T13:02:45.696Z,30.21
2022-08-18T13:05:12.643Z,30.47
2022-08-18T13:07:39.544Z,30.38
2022-08-18T13:10:07.353Z,30.33
2022-08-18T13:12:48.858Z,30.26
2022-08-18T13:15:16.850Z,30.34
2022-08-18T13:17:46.798Z,30.73
2022-08-18T13:20:17.532Z,30.46
2022-08-18T13:22:44.529Z,30.01
2022-08-18T13:25:32.281Z,29.97
2022-08-18T13:28:02.452Z,30.07
2022-08-18T13:30:32.295Z,29.74
2022-08-18T13:33:02.406Z,29.72
2022-08-18T13:35:38.064Z,29.77
2022-08-18T13:38:15.699Z,29.77
2022-08-18T13:40:50.656Z,29.92
2022-08-18T13:43:23.375Z,30.28
2022-08-18T13:45:53.364Z,30.49
2022-08-18T13:48:24.150Z,30.44
2022-08-18T13:50:55.725Z,30.60
2022-08-18T13:53:24.658Z,30.48
2022-08-18T13:55:53.184Z,30.60
2022-08-18T13:58:21.268Z,30.75
2022-08-18T14:01:05.726Z,30.69
2022-08-18T14:03:47.201Z,30.20
2022-08-18T14:06:15.940Z,29.78
2022-08-18T14:08:50.885Z,29.90
2022-08-18T14:11:18.854Z,29.89
2022-08-18T14:13:45.875Z,29.86
2022-08-18T14:16:18.449Z,29.96
2022-08-18T14:19:09.531Z,29.98
2022-08-18T14:22:01.649Z,29.91
2022-08-18T14:24:49.502Z,29.80
2022-08-18T14:27:24.735Z,29.63
2022-08-18T14:29:55.111Z,29.67
2022-08-18T14:32:29.068Z,29.90
2022-08-18T14:35:00.236Z,29.94
2022-08-18T14:37:29.829Z,29.71
2022-08-18T14:39:58.449Z,29.74
2022-08-18T14:42:32.985Z,29.46
2022-08-18T14:45:26.460Z,29.39
2022-08-18T14:47:58.778Z,29.38
2022-08-18T14:50:26.925Z,29.29
2022-08-18T14:52:54.010Z,29.40
2022-08-18T14:55:21.263Z,29.69
2022-08-18T14:57:50.491Z,29.74
2022-08-18T15:00:21.055Z,29.93
2022-08-18T15:02:50.405Z,30.03
2022-08-18T15:05:19.833Z,29.88
2022-08-18T15:07:52.139Z,29.85
2022-08-18T15:10:23.649Z,29.56
2022-08-18T15:12:55.530Z,29.37
2022-08-18T15:15:22.915Z,29.16
2022-08-18T15:17:52.951Z,28.99
2022-08-18T15:20:28.822Z,28.94
2022-08-18T15:23:25.051Z,28.82
2022-08-18T15:25:56.580Z,28.81
2022-08-18T15:28:26.446Z,28.77
2022-08-18T15:33:40.343Z,28.44
2022-08-18T15:36:10.302Z,28.34
2022-08-18T15:38:43.108Z,28.24
2022-08-18T15:41:10.259Z,28.36
2022-08-18T15:43:45.981Z,28.35
2022-08-18T15:46:16.632Z,28.38
2022-08-18T15:48:43.981Z,28.22
2022-08-18T15:51:12.042Z,28.26
2022-08-18T15:53:40.353Z,28.30
2022-08-18T15:56:20.679Z,28.30
2022-08-18T15:58:48.557Z,28.17
2022-08-18T16:01:29.878Z,27.92
2022-08-18T16:04:01.366Z,27.82
2022-08-18T16:06:32.387Z,27.88
2022-08-18T16:09:00.991Z,27.67
2022-08-18T16:11:29.309Z,27.42
2022-08-18T16:14:00.920Z,27.35
2022-08-18T16:16:29.047Z,27.07
2022-08-18T16:19:05.669Z,27.05
2022-08-18T16:21:32.892Z,27.13
2022-08-18T16:23:59.855Z,27.05
2022-08-18T16:26:26.828Z,27.10
2022-08-18T16:28:53.808Z,27.15
2022-08-18T16:31:26.224Z,26.99
2022-08-18T16:33:55.531Z,26.89
2022-08-18T16:36:26.640Z,26.69
2022-08-18T16:38:58.163Z,26.85
2022-08-18T16:41:26.618Z,26.93
2022-08-18T16:43:53.935Z,26.66
2022-08-18T16:46:25.378Z,26.71
2022-08-18T16:48:55.162Z,26.81
2022-08-18T16:51:25.416Z,26.82
2022-08-18T16:53:53.607Z,26.55
2022-08-18T16:56:23.744Z,26.39
2022-08-18T16:59:10.003Z,26.51
2022-08-18T17:01:56.302Z,26.54
2022-08-18T17:04:28.888Z,26.52
2022-08-18T17:06:57.021Z,26.56
2022-08-18T17:09:24.567Z,26.57
2022-08-18T17:11:52.440Z,26.59
2022-08-18T17:14:25.611Z,26.69
2022-08-18T17:16:55.233Z,26.75
2022-08-18T17:19:30.018Z,26.69
2022-08-18T17:21:57.602Z,26.72
2022-08-18T17:24:32.176Z,26.76
2022-08-18T17:27:26.142Z,26.82
2022-08-18T17:30:16.158Z,26.75
2022-08-18T17:32:49.466Z,26.74
2022-08-18T17:35:34.874Z,26.71
2022-08-18T17:38:08.881Z,26.69
2022-08-18T17:40:42.914Z,26.49
2022-08-18T17:43:14.923Z,26.51
2022-08-18T17:45:43.627Z,26.49
2022-08-18T17:48:22.341Z,26.50
2022-08-18T17:51:21.139Z,26.55
2022-08-18T17:53:48.230Z,26.55
2022-08-18T17:56:35.167Z,26.53
2022-08-18T17:59:51.164Z,26.39
2022-08-18T18:02:19.041Z,26.47
2022-08-18T18:04:58.700Z,26.41
2022-08-18T18:07:34.107Z,26.54
2022-08-18T18:10:02.677Z,26.46
2022-08-18T18:12:32.424Z,26.27
2022-08-18T18:15:00.802Z,26.23
2022-08-18T18:17:31.198Z,26.27
2022-08-18T18:20:24.502Z,26.19
2022-08-18T18:22:52.307Z,25.87
2022-08-18T18:25:34.689Z,25.93
2022-08-18T18:28:02.441Z,26.06
2022-08-18T18:30:30.021Z,26.08
2022-08-18T18:33:19.658Z,26.09
2022-08-18T18:35:53.993Z,25.98
2022-08-18T18:38:35.574Z,26.02
2022-08-18T18:41:06.865Z,26.03
2022-08-18T18:43:35.462Z,25.75
2022-08-18T18:46:23.514Z,25.72
2022-08-18T18:49:11.834Z,25.64
2022-08-18T18:52:10.454Z,25.25
2022-08-18T18:54:57.247Z,25.20
2022-08-18T18:57:23.983Z,24.93
2022-08-18T19:00:13.462Z,24.54
2022-08-18T19:02:57.811Z,24.45
2022-08-18T19:05:56.852Z,24.09
2022-08-18T19:08:36.126Z,24.08
2022-08-18T19:11:12.105Z,23.94
2022-08-18T19:13:44.247Z,23.98
2022-08-18T19:16:24.371Z,23.89
2022-08-18T19:19:36.967Z,23.85
2022-08-18T19:22:04.270Z,23.74
2022-08-18T19:24:47.781Z,23.79
2022-08-18T19:27:25.520Z,23.84
2022-08-18T19:29:56.516Z,23.78
2022-08-18T19:32:32.570Z,23.83
2022-08-18T19:35:04.252Z,23.80
2022-08-18T19:37:59.017Z,23.79
2022-08-18T19:40:48.344Z,23.73
2022-08-18T19:43:58.849Z,23.58
2022-08-18T19:46:39.641Z,23.51
2022-08-18T19:49:28.826Z,23.55
2022-08-18T19:52:52.595Z,23.47
2022-08-18T19:55:33.022Z,23.43
2022-08-18T19:58:16.731Z,23.43
2022-08-18T20:01:10.267Z,23.41
2022-08-18T20:03:59.137Z,23.38
2022-08-18T20:06:56.845Z,23.42
2022-08-18T20:09:33.389Z,23.35
2022-08-18T20:12:17.510Z,23.38
2022-08-18T20:15:00.670Z,23.41
2022-08-18T20:17:28.387Z,23.37
2022-08-18T20:19:55.326Z,23.36
2022-08-18T20:22:24.477Z,23.33
2022-08-18T20:25:04.653Z,23.32
2022-08-18T20:27:41.923Z,23.13
2022-08-18T20:30:29.834Z,22.77
2022-08-18T20:33:05.719Z,22.50
2022-08-18T20:35:46.816Z,22.33
2022-08-18T20:38:31.345Z,22.26
2022-08-18T20:41:00.067Z,22.34
2022-08-18T20:43:38.232Z,22.29
2022-08-18T20:46:22.485Z,22.22
2022-08-18T20:49:07.908Z,22.18
2022-08-18T20:51:52.164Z,22.12
2022-08-18T20:54:28.383Z,22.12
2022-08-18T20:57:00.358Z,22.11
2022-08-18T20:59:40.182Z,22.19
2022-08-18T21:02:24.384Z,22.34
2022-08-18T21:04:54.186Z,22.42
2022-08-18T21:07:37.314Z,22.47
2022-08-18T21:10:24.450Z,22.46
2022-08-18T21:12:55.072Z,22.43
2022-08-18T21:15:27.474Z,22.38
2022-08-18T21:18:03.004Z,22.36
2022-08-18T21:20:31.637Z,22.29
2022-08-18T21:23:11.039Z,22.19
2022-08-18T21:25:48.755Z,22.02
2022-08-18T21:28:17.598Z,21.90
2022-08-18T21:31:29.089Z,21.77
2022-08-18T21:33:53.756Z,21.68
2022-08-18T21:36:26.466Z,21.59
2022-08-18T21:38:56.788Z,21.59
2022-08-18T21:41:33.678Z,21.55
2022-08-18T21:44:07.093Z,21.56
2022-08-18T21:46:34.724Z,21.58
2022-08-18T21:49:03.855Z,21.60
2022-08-18T21:51:46.183Z,21.49
2022-08-18T21:54:18.218Z,21.36
2022-08-18T21:56:45.397Z,21.24
2022-08-18T21:59:17.087Z,21.23
2022-08-18T22:01:56.482Z,21.21
2022-08-18T22:04:47.548Z,21.21
2022-08-18T22:07:22.010Z,21.16
2022-08-18T22:10:36.958Z,21.12
2022-08-18T22:13:22.642Z,20.99
2022-08-18T22:15:50.862Z,20.88
2022-08-18T22:18:17.950Z,20.77
2022-08-18T22:20:53.049Z,20.82
2022-08-18T22:23:44.980Z,20.91
2022-08-18T22:26:15.123Z,20.80
2022-08-18T22:29:04.899Z,20.89
2022-08-18T22:31:34.060Z,20.86
2022-08-18T22:34:06.429Z,20.78
2022-08-18T22:36:47.144Z,20.74
2022-08-18T22:39:22.766Z,20.72
2022-08-18T22:41:49.804Z,20.51
2022-08-18T22:44:16.930Z,20.38
2022-08-18T22:46:43.926Z,20.24
2022-08-18T22:49:11.444Z,20.23
2022-08-18T22:51:38.602Z,20.36
2022-08-18T22:54:08.520Z,20.53
2022-08-18T22:56:37.957Z,20.65
2022-08-18T22:59:16.108Z,20.89
2022-08-18T23:01:49.118Z,20.99
2022-08-18T23:04:18.775Z,21.05
2022-08-18T23:06:52.545Z,21.03
2022-08-18T23:09:26.514Z,21.13
2022-08-18T23:11:56.584Z,21.17
2022-08-18T23:14:24.392Z,21.19
2022-08-18T23:16:51.635Z,21.19
2022-08-18T23:19:20.525Z,21.18
2022-08-18T23:21:48.801Z,21.16
2022-08-18T23:24:16.902Z,21.20
2022-08-18T23:26:43.963Z,21.22
2022-08-18T23:29:12.758Z,21.17
2022-08-18T23:31:41.789Z,21.17
2022-08-18T23:34:10.111Z,21.24
2022-08-18T23:36:41.270Z,21.28
2022-08-18T23:39:11.527Z,21.33
2022-08-18T23:41:38.985Z,21.30
2022-08-18T23:44:06.728Z,21.23
2022-08-18T23:46:35.315Z,21.05
2022-08-18T23:49:04.714Z,20.59
2022-08-18T23:51:42.733Z,20.11
2022-08-18T23:54:17.216Z,19.88
2022-08-18T23:56:44.834Z,19.78
2022-08-18T23:59:13.712Z,19.89
